Time;durP1;ratioP1;P1;durP2;ratioP2;P2;SDS_P1;SDS_P2;PMS_P1;PMS_P2;Temp;Humidity;BMP_temperature;BMP_pressure;BME280_temperature;BME280_humidity;BME280_pressure;Samples;Min_cycle;Max_cycle;Signal;HPM_P1;HPM_P2
2022/08/25 00:00:36;;;;;;;;;;;18.20;99.90;;;17.23;100.00;95792.50;10360905;28;3247;-75
2022/08/25 00:05:40;;;;;;;;;;;18.20;99.90;;;17.21;100.00;95795.53;10353719;28;3385;-73
2022/08/25 00:10:43;;;;;;;;;;;18.10;99.90;;;17.14;100.00;95783.53;10366772;28;2588;-74
2022/08/25 00:16:01;;;;;;;;;;;18.10;99.90;;;17.16;100.00;95784.81;10361093;28;3386;-73
2022/08/25 00:21:04;;;;;;;;;;;18.00;99.90;;;16.99;100.00;95780.13;10353218;28;3357;-73
2022/08/25 00:26:07;;;;;;;;;;;18.00;99.90;;;17.10;100.00;95779.84;10357191;28;3256;-73
2022/08/25 00:31:10;;;;;;;;;;;17.90;99.90;;;16.91;100.00;95780.09;10348408;28;2595;-74
2022/08/25 00:36:13;;;;;;;;;;;17.90;99.90;;;16.82;100.00;95781.97;10357775;28;3306;-73
2022/08/25 00:41:16;;;;;;;;;;;17.80;99.90;;;16.88;100.00;95780.72;10350661;28;3336;-75
2022/08/25 00:46:19;;;;;;;;;;;17.70;99.90;;;16.89;100.00;95782.31;10359894;28;2544;-75
2022/08/25 00:51:22;;;;;;;;;;;17.80;99.90;;;16.87;100.00;95774.50;10361051;28;3322;-74
2022/08/25 00:56:25;;;;;;;;;;;17.70;99.90;;;16.83;100.00;95772.72;10360514;28;3310;-76
2022/08/25 01:01:29;;;;;;;;;;;17.70;99.90;;;16.80;100.00;95767.94;10364151;28;3315;-75
2022/08/25 01:06:32;;;;;;;;;;;17.80;99.90;;;16.69;100.00;95762.72;10358705;28;2577;-74
2022/08/25 01:11:35;;;;;;;;;;;17.70;99.90;;;16.82;100.00;95766.50;10360805;28;3239;-74
2022/08/25 01:16:38;;;;;;;;;;;17.60;99.90;;;16.79;100.00;95760.88;10354501;28;3628;-72
2022/08/25 01:21:41;;;;;;;;;;;17.50;99.90;;;16.78;100.00;95760.06;10356916;28;3294;-72
2022/08/25 01:26:44;;;;;;;;;;;17.60;99.90;;;16.71;100.00;95759.72;10360856;28;3360;-74
2022/08/25 01:31:46;;;;;;;;;;;17.60;99.90;;;16.66;100.00;95762.53;10359373;28;3482;-73
2022/08/25 01:36:49;;;;;;;;;;;17.60;99.90;;;16.50;100.00;95759.44;10359711;28;3734;-73
2022/08/25 01:41:52;;;;;;;;;;;17.40;99.90;;;16.49;100.00;95760.56;10353775;28;3431;-73
2022/08/25 01:46:55;;;;;;;;;;;17.50;99.90;;;16.36;100.00;95759.53;10356734;28;2599;-73
2022/08/25 01:51:58;;;;;;;;;;;17.30;99.90;;;16.41;100.00;95755.88;10350605;28;3260;-74
2022/08/25 01:57:01;;;;;;;;;;;17.30;99.90;;;16.39;100.00;95753.47;10351521;28;2532;-74
2022/08/25 02:02:04;;;;;;;;;;;17.30;99.90;;;16.34;100.00;95756.31;10364221;28;3417;-73
2022/08/25 02:07:07;;;;;;;;;;;17.20;99.90;;;16.25;100.00;95755.47;10363405;28;3435;-74
2022/08/25 02:12:10;;;;;;;;;;;17.10;99.90;;;16.23;100.00;95755.00;10352637;28;3423;-74
2022/08/25 02:17:12;;;;;;;;;;;17.10;99.90;;;16.18;100.00;95757.81;10359072;28;3317;-75
2022/08/25 02:22:16;;;;;;;;;;;17.30;99.90;;;16.04;100.00;95760.59;10355718;28;3335;-73
2022/08/25 02:27:19;;;;;;;;;;;17.00;99.90;;;16.13;100.00;95755.22;10351890;28;3381;-75
2022/08/25 02:32:22;;;;;;;;;;;16.90;99.90;;;15.99;100.00;95754.50;10357635;28;3431;-75
2022/08/25 02:37:25;;;;;;;;;;;16.80;99.90;;;15.88;100.00;95759.34;10355620;28;2545;-73
2022/08/25 02:42:28;;;;;;;;;;;16.80;99.90;;;15.91;100.00;95758.75;10361481;28;3372;-75
2022/08/25 02:47:31;;;;;;;;;;;16.80;99.90;;;15.85;100.00;95759.97;10357914;28;3346;-76
2022/08/25 02:52:35;;;;;;;;;;;16.80;99.90;;;15.94;100.00;95748.09;10359265;28;3365;-76
2022/08/25 02:57:38;;;;;;;;;;;16.80;99.90;;;15.95;100.00;95738.84;10361558;28;3318;-73
2022/08/25 03:02:41;;;;;;;;;;;16.80;99.90;;;15.90;100.00;95746.28;10355797;28;2568;-75
2022/08/25 03:07:43;;;;;;;;;;;16.80;99.90;;;15.91;100.00;95742.50;10363153;28;3310;-75
2022/08/25 03:12:46;;;;;;;;;;;16.80;99.90;;;15.90;100.00;95738.97;10354292;28;3379;-73
2022/08/25 03:17:49;;;;;;;;;;;16.70;99.90;;;15.77;100.00;95747.16;10360666;28;2173;-74
2022/08/25 03:23:03;;;;;;;;;;;16.70;99.90;;;15.66;100.00;95739.28;10355934;28;3287;-74
2022/08/25 03:28:06;;;;;;;;;;;16.60;99.90;;;15.82;100.00;95738.91;10359426;28;3389;-74
2022/08/25 03:33:09;;;;;;;;;;;16.70;99.90;;;15.84;100.00;95736.66;10367348;28;3263;-75
2022/08/25 03:38:11;;;;;;;;;;;16.70;99.90;;;15.78;100.00;95737.94;10358220;28;3398;-74
2022/08/25 03:43:14;;;;;;;;;;;16.60;99.90;;;15.80;100.00;95736.50;10353622;28;3295;-73
2022/08/25 03:48:17;;;;;;;;;;;16.60;99.90;;;15.76;100.00;95735.50;10362143;28;3334;-73
2022/08/25 03:53:20;;;;;;;;;;;16.70;99.90;;;15.71;100.00;95726.69;10360022;28;2489;-75
2022/08/25 03:58:23;;;;;;;;;;;16.60;99.90;;;15.61;100.00;95723.09;10352624;28;3313;-74
2022/08/25 04:03:26;;;;;;;;;;;16.60;99.90;;;15.64;100.00;95721.69;10360920;28;3262;-73
2022/08/25 04:08:29;;;;;;;;;;;16.40;99.90;;;15.52;100.00;95734.94;10352636;28;3543;-73
2022/08/25 04:13:31;;;;;;;;;;;16.50;99.90;;;15.55;100.00;95740.56;10351013;28;2603;-74
2022/08/25 04:18:34;;;;;;;;;;;16.50;99.90;;;15.60;100.00;95737.75;10347066;28;3414;-73
2022/08/25 04:23:37;;;;;;;;;;;16.40;99.90;;;15.59;100.00;95741.56;10345454;28;2560;-74
2022/08/25 04:28:40;;;;;;;;;;;16.50;99.90;;;15.55;100.00;95737.06;10362450;28;2708;-73
2022/08/25 04:33:43;;;;;;;;;;;16.40;99.90;;;15.66;100.00;95736.56;10372395;28;2045;-73
2022/08/25 04:38:46;;;;;;;;;;;16.40;99.90;;;15.53;100.00;95742.78;10359160;28;2583;-74
2022/08/25 04:43:48;;;;;;;;;;;16.40;99.90;;;15.65;100.00;95734.97;10357574;28;3363;-73
2022/08/25 04:48:51;;;;;;;;;;;16.50;99.90;;;15.70;100.00;95731.31;10363062;28;3668;-72
2022/08/25 04:53:54;;;;;;;;;;;16.50;99.90;;;15.78;100.00;95738.72;10361278;28;3321;-74
2022/08/25 04:58:57;;;;;;;;;;;16.40;99.90;;;16.01;100.00;95730.59;10368733;28;3429;-73
2022/08/25 05:04:00;;;;;;;;;;;16.60;99.90;;;16.26;100.00;95721.00;10353782;28;3396;-74
2022/08/25 05:09:03;;;;;;;;;;;16.90;99.90;;;16.35;100.00;95729.97;10350732;28;3301;-74
2022/08/25 05:14:10;;;;;;;;;;;17.10;99.90;;;16.49;100.00;95723.38;10350507;28;3350;-74
2022/08/25 05:19:13;;;;;;;;;;;17.20;99.90;;;16.73;100.00;95724.91;10362868;28;3322;-72
2022/08/25 05:24:16;;;;;;;;;;;17.30;99.90;;;17.21;100.00;95727.63;10348112;28;3332;-73
2022/08/25 05:29:20;;;;;;;;;;;17.60;99.90;;;17.15;100.00;95718.03;10352670;28;3318;-74
2022/08/25 05:34:24;;;;;;;;;;;17.80;99.90;;;17.57;100.00;95721.13;10350725;28;3311;-72
2022/08/25 05:39:31;;;;;;;;;;;18.00;99.90;;;17.80;100.00;95708.19;10359523;28;3324;-70
2022/08/25 05:44:34;;;;;;;;;;;18.30;99.90;;;17.92;100.00;95708.34;10351366;28;3290;-76
2022/08/25 05:49:37;;;;;;;;;;;18.50;99.90;;;17.85;100.00;95704.50;10365616;28;2584;-80
2022/08/25 05:54:40;;;;;;;;;;;18.60;99.90;;;17.67;100.00;95715.34;10371233;28;3366;-84
2022/08/25 05:59:55;;;;;;;;;;;18.60;99.90;;;17.92;100.00;95721.94;10368317;28;3323;-87
2022/08/25 06:05:00;;;;;;;;;;;18.50;99.90;;;18.13;100.00;95711.19;10362065;28;3337;-84
2022/08/25 06:10:13;;;;;;;;;;;18.70;99.90;;;18.21;100.00;95707.66;10365657;28;2583;-83
2022/08/25 06:15:22;;;;;;;;;;;18.90;99.90;;;18.41;100.00;95708.88;10365206;28;2571;-81
2022/08/25 06:20:35;;;;;;;;;;;19.00;99.90;;;18.11;100.00;95697.09;10349719;28;3365;-77
2022/08/25 06:25:39;;;;;;;;;;;18.90;99.90;;;19.03;100.00;95694.72;10354815;28;3311;-75
2022/08/25 06:30:42;;;;;;;;;;;19.20;99.90;;;19.43;100.00;95686.91;10354784;28;3327;-75
2022/08/25 06:35:45;;;;;;;;;;;19.80;99.90;;;19.42;100.00;95693.50;10360484;28;3940;-74
2022/08/25 06:40:48;;;;;;;;;;;19.90;99.90;;;19.99;100.00;95686.66;10350541;28;3386;-78
2022/08/25 06:46:02;;;;;;;;;;;20.20;99.90;;;19.75;100.00;95702.91;10351933;28;3298;-80
2022/08/25 06:51:17;;;;;;;;;;;20.20;99.90;;;20.22;100.00;95698.75;10352324;28;3429;-79
2022/08/25 06:56:29;;;;;;;;;;;20.50;99.90;;;20.94;99.74;95709.38;10355842;28;2610;-78
2022/08/25 07:01:33;;;;;;;;;;;21.00;99.90;;;20.71;99.76;95707.09;10361421;28;3307;-77
2022/08/25 07:06:37;;;;;;;;;;;21.20;99.90;;;20.30;100.00;95702.56;10358165;28;3332;-77
2022/08/25 07:11:51;;;;;;;;;;;21.10;99.90;;;20.47;100.00;95702.38;10357230;28;3258;-77
2022/08/25 07:16:54;;;;;;;;;;;21.10;99.90;;;20.85;99.61;95705.94;10358910;28;3366;-77
2022/08/25 07:21:58;;;;;;;;;;;21.20;99.90;;;20.48;100.00;95700.44;10361754;28;3309;-77
2022/08/25 07:27:02;;;;;;;;;;;21.30;99.90;;;20.30;100.00;95699.81;10360845;28;2517;-75
2022/08/25 07:32:05;;;;;;;;;;;21.10;99.90;;;20.58;100.00;95699.22;10355410;28;3363;-76
2022/08/25 07:37:08;;;;;;;;;;;21.20;99.90;;;20.85;97.30;95700.47;10360620;28;3227;-76
2022/08/25 07:42:11;;;;;;;;;;;21.60;99.90;;;20.66;98.88;95698.31;10356090;28;3235;-74
2022/08/25 07:47:14;;;;;;;;;;;21.30;99.90;;;20.78;100.00;95701.06;10366625;28;3418;-75
2022/08/25 07:52:18;;;;;;;;;;;21.50;99.90;;;21.07;96.35;95701.97;10356886;28;3421;-75
2022/08/25 07:57:23;;;;;;;;;;;21.50;99.90;;;21.12;98.17;95688.06;10355981;28;3361;-75
2022/08/25 08:02:26;;;;;;;;;;;21.70;99.90;;;21.46;95.81;95692.28;10363545;28;3315;-77
2022/08/25 08:07:30;;;;;;;;;;;22.00;99.90;;;21.66;94.30;95704.19;10356770;28;2406;-77
2022/08/25 08:12:45;;;;;;;;;;;22.20;99.90;;;20.81;98.77;95705.06;10351423;28;3382;-76
2022/08/25 08:17:48;;;;;;;;;;;22.00;99.90;;;21.54;96.49;95700.34;10360943;28;3279;-74
2022/08/25 08:22:52;;;;;;;;;;;22.00;99.90;;;21.75;92.95;95705.63;10360358;28;3347;-78
2022/08/25 08:27:56;;;;;;;;;;;22.30;99.90;;;21.81;91.96;95697.97;10353386;28;3413;-78
2022/08/25 08:33:00;;;;;;;;;;;22.60;99.90;;;22.02;91.81;95693.13;10352466;28;2533;-76
2022/08/25 08:38:14;;;;;;;;;;;22.60;99.90;;;21.57;93.70;95696.13;10356148;28;3246;-75
2022/08/25 08:43:24;;;;;;;;;;;22.80;99.90;;;22.40;89.53;95689.09;10352572;28;3394;-75
2022/08/25 08:48:31;;;;;;;;;;;23.00;99.90;;;22.29;88.83;95682.53;10357616;28;3509;-75
2022/08/25 08:53:33;;;;;;;;;;;23.20;99.90;;;22.69;86.64;95682.38;10352468;28;3303;-74
2022/08/25 08:58:36;;;;;;;;;;;23.20;99.90;;;22.44;89.56;95680.94;10346648;28;3445;-75
2022/08/25 09:03:39;;;;;;;;;;;23.20;99.90;;;22.66;88.99;95667.47;10348819;28;3251;-76
2022/08/25 09:08:44;;;;;;;;;;;23.20;99.90;;;22.45;90.18;95666.91;10349925;28;3335;-77
2022/08/25 09:13:49;;;;;;;;;;;23.30;99.90;;;22.22;91.95;95661.22;10350920;28;3314;-76
2022/08/25 09:18:51;;;;;;;;;;;23.10;99.90;;;22.44;90.16;95661.78;10360563;28;2638;-77
2022/08/25 09:23:54;;;;;;;;;;;23.20;99.90;;;22.39;89.60;95668.31;10354463;28;3529;-78
2022/08/25 09:28:57;;;;;;;;;;;23.40;99.90;;;22.86;86.84;95662.88;10352887;28;3831;-76
2022/08/25 09:34:00;;;;;;;;;;;23.50;99.90;;;23.53;84.61;95660.06;10352122;28;3364;-76
2022/08/25 09:39:04;;;;;;;;;;;23.90;99.90;;;23.38;84.71;95658.97;10352798;28;3337;-77
2022/08/25 09:44:08;;;;;;;;;;;24.10;99.90;;;23.43;84.47;95655.16;10358041;28;3464;-77
2022/08/25 09:49:11;;;;;;;;;;;24.00;99.90;;;23.43;82.74;95646.94;10352274;28;3283;-77
2022/08/25 09:54:15;;;;;;;;;;;24.20;99.90;;;24.10;80.08;95639.28;10347536;28;3338;-75
2022/08/25 09:59:18;;;;;;;;;;;24.50;99.90;;;23.97;80.22;95643.34;10351523;28;3350;-75
2022/08/25 10:04:22;;;;;;;;;;;24.80;99.90;;;24.06;80.74;95643.16;10346825;28;2683;-77
2022/08/25 10:09:25;;;;;;;;;;;24.80;99.90;;;24.30;76.84;95626.31;10359492;28;2651;-77
2022/08/25 10:14:29;;;;;;;;;;;25.10;99.90;;;24.75;75.85;95622.81;10356835;28;3349;-76
2022/08/25 10:19:32;;;;;;;;;;;25.20;99.90;;;24.37;77.14;95618.25;10345595;28;3282;-77
2022/08/25 10:24:35;;;;;;;;;;;25.40;99.90;;;24.41;75.45;95618.28;10348837;28;3396;-77
2022/08/25 10:29:38;;;;;;;;;;;25.40;99.90;;;24.61;70.44;95619.81;10350150;28;2726;-76
2022/08/25 10:34:42;;;;;;;;;;;25.40;99.90;;;24.63;71.46;95620.25;10355487;28;3291;-77
2022/08/25 10:39:47;;;;;;;;;;;25.30;99.90;;;24.46;70.95;95613.28;10346541;28;2580;-77
2022/08/25 10:50:23;;;;;;;;;;;25.50;99.90;;;24.34;72.40;95605.22;10347698;28;3243;-77
2022/08/25 10:55:26;;;;;;;;;;;25.30;99.90;;;24.47;72.13;95603.88;10358181;28;3302;-78
2022/08/25 11:00:34;;;;;;;;;;;25.30;99.90;;;24.90;68.04;95598.28;10351370;28;3350;-78
2022/08/25 11:05:36;;;;;;;;;;;25.60;99.90;;;24.69;67.62;95596.78;10356689;28;3272;-77
2022/08/25 11:10:40;;;;;;;;;;;25.50;99.90;;;24.85;67.80;95590.34;10349028;28;2537;-76
2022/08/25 11:15:43;;;;;;;;;;;25.60;99.90;;;25.04;68.32;95584.75;10352153;28;3305;-75
2022/08/25 11:21:15;;;;;;;;;;;25.70;99.90;;;25.49;66.54;95585.75;10345528;28;3362;-75
2022/08/25 11:26:19;;;;;;;;;;;26.20;99.90;;;25.77;64.29;95580.63;10349487;28;3303;-75
2022/08/25 11:31:21;;;;;;;;;;;26.40;99.90;;;26.21;63.13;95571.66;10350889;28;3314;-75
2022/08/25 11:36:25;;;;;;;;;;;26.60;99.90;;;26.38;60.28;95567.47;10349999;28;2588;-76
2022/08/25 11:41:41;;;;;;;;;;;27.10;99.90;;;26.17;61.50;95556.25;10347589;28;3298;-75
2022/08/25 11:46:44;;;;;;;;;;;26.90;99.90;;;25.90;62.78;95550.09;10346384;28;3276;-80
2022/08/25 11:51:47;;;;;;;;;;;26.80;99.90;;;25.50;63.24;95543.31;10343602;28;3297;-79
2022/08/25 11:56:50;;;;;;;;;;;26.50;99.90;;;25.73;62.57;95551.47;10354994;28;3704;-75
2022/08/25 12:02:04;;;;;;;;;;;26.50;99.90;;;26.34;60.71;95544.63;10358571;28;3274;-76
2022/08/25 12:07:07;;;;;;;;;;;26.70;99.90;;;26.61;58.34;95545.25;10351836;28;2561;-79
2022/08/25 12:12:13;;;;;;;;;;;27.10;99.90;;;26.51;58.14;95545.94;10348532;28;3301;-78
2022/08/25 12:17:16;;;;;;;;;;;27.10;99.90;;;27.15;57.29;95546.41;10357398;28;3257;-79
2022/08/25 12:22:20;;;;;;;;;;;27.40;99.90;;;26.70;56.39;95542.94;10349793;28;3399;-83
2022/08/25 12:27:24;;;;;;;;;;;27.70;99.90;;;26.43;57.91;95545.09;10348079;28;2659;-78
2022/08/25 12:32:29;;;;;;;;;;;27.40;99.90;;;26.87;55.55;95547.78;10352404;28;3301;-76
2022/08/25 12:37:32;;;;;;;;;;;27.40;99.90;;;26.85;55.46;95544.63;10347074;28;2573;-78
2022/08/25 12:42:35;;;;;;;;;;;27.70;99.90;;;27.07;54.66;95550.31;10345861;28;3274;-77
2022/08/25 12:47:41;;;;;;;;;;;28.00;99.90;;;27.16;55.26;95539.69;10357640;28;3331;-76
2022/08/25 12:52:46;;;;;;;;;;;27.90;99.90;;;26.50;58.12;95538.84;10351596;28;3318;-80
2022/08/25 12:57:49;;;;;;;;;;;27.60;99.90;;;26.01;59.68;95545.47;10367540;28;3263;-80
2022/08/25 13:02:52;;;;;;;;;;;27.10;99.90;;;25.92;60.54;95537.53;10349428;28;3307;-76
2022/08/25 13:07:55;;;;;;;;;;;26.80;99.90;;;26.19;60.63;95535.41;10353923;28;3338;-75
2022/08/25 13:12:58;;;;;;;;;;;26.80;99.90;;;26.63;57.70;95515.31;10351077;28;3275;-75
2022/08/25 13:18:03;;;;;;;;;;;27.10;99.90;;;26.49;58.42;95509.72;10351394;28;3310;-76
2022/08/25 13:23:12;;;;;;;;;;;27.30;99.90;;;26.47;57.17;95506.56;10349102;28;3325;-76
2022/08/25 13:28:18;;;;;;;;;;;27.20;99.90;;;26.57;57.55;95516.84;10347503;28;3295;-78
2022/08/25 13:33:25;;;;;;;;;;;27.20;99.90;;;26.88;57.39;95505.25;10349403;28;3384;-78
2022/08/25 13:38:28;;;;;;;;;;;27.40;99.90;;;26.64;56.39;95501.16;10350656;28;3350;-78
2022/08/25 13:43:31;;;;;;;;;;;27.50;99.90;;;26.97;56.47;95498.59;10356567;28;3418;-77
2022/08/25 13:48:34;;;;;;;;;;;27.60;99.90;;;27.25;54.50;95492.47;10348896;28;3307;-78
2022/08/25 13:53:37;;;;;;;;;;;27.80;99.90;;;26.44;56.53;95494.31;10346836;28;3727;-78
2022/08/25 13:58:40;;;;;;;;;;;27.50;99.90;;;26.94;53.26;95492.66;10356614;28;3279;-77
2022/08/25 14:03:48;;;;;;;;;;;27.50;99.90;;;27.60;52.35;95491.78;10360208;28;3264;-77
2022/08/25 14:08:56;;;;;;;;;;;27.90;99.90;;;27.56;51.60;95491.00;10357354;28;3383;-77
2022/08/25 14:13:59;;;;;;;;;;;28.20;99.90;;;27.57;51.70;95485.06;10361946;28;3394;-77
2022/08/25 14:19:04;;;;;;;;;;;28.30;99.90;;;27.65;51.89;95491.41;10348401;28;3342;-77
2022/08/25 14:24:09;;;;;;;;;;;28.40;99.90;;;27.23;53.37;95481.81;10356018;28;3250;-78
2022/08/25 14:29:12;;;;;;;;;;;28.00;99.90;;;27.16;53.50;95482.53;10356517;28;3387;-79
2022/08/25 14:34:19;;;;;;;;;;;28.10;99.90;;;27.52;52.40;95479.13;10355832;28;3340;-76
2022/08/25 14:39:22;;;;;;;;;;;28.20;99.90;;;27.59;51.57;95481.91;10351120;28;3231;-76
2022/08/25 14:44:31;;;;;;;;;;;28.30;99.90;;;27.70;51.35;95475.28;10351632;28;3322;-77
2022/08/25 14:49:35;;;;;;;;;;;28.30;99.90;;;28.02;50.33;95472.56;10356266;28;3328;-78
2022/08/25 14:54:49;;;;;;;;;;;28.50;99.90;;;27.52;51.40;95477.16;10356104;28;3319;-78
2022/08/25 14:59:52;;;;;;;;;;;28.40;99.90;;;27.31;51.57;95466.84;10353873;28;2572;-76
2022/08/25 15:04:55;;;;;;;;;;;28.40;99.90;;;26.91;53.88;95468.63;10357663;28;3390;-77
2022/08/25 15:10:08;;;;;;;;;;;27.90;99.90;;;26.47;55.57;95465.22;10357562;28;3456;-81
2022/08/25 15:15:15;;;;;;;;;;;27.50;99.90;;;26.60;55.79;95456.25;10365182;28;1963;-76
2022/08/25 15:20:19;;;;;;;;;;;27.30;99.90;;;26.06;57.04;95459.75;10361257;28;3329;-77
2022/08/25 15:25:23;;;;;;;;;;;27.10;99.90;;;26.12;56.87;95469.25;10364623;28;3322;-76
2022/08/25 15:30:28;;;;;;;;;;;26.90;99.90;;;26.01;57.72;95462.84;10361119;28;3278;-77
2022/08/25 15:35:37;;;;;;;;;;;26.80;99.90;;;25.94;57.89;95465.53;10355718;28;2773;-77
2022/08/25 15:40:40;;;;;;;;;;;26.70;99.90;;;26.07;57.51;95461.31;10362123;28;1892;-77
2022/08/25 15:45:53;;;;;;;;;;;26.70;99.90;;;26.46;55.74;95460.84;10356753;28;3442;-79
2022/08/25 15:51:07;;;;;;;;;;;27.00;99.90;;;26.44;56.47;95452.19;10359657;28;3326;-72
2022/08/25 15:56:20;;;;;;;;;;;27.10;99.90;;;26.56;55.48;95444.41;10355457;28;1896;-74
2022/08/25 16:01:29;;;;;;;;;;;27.20;99.90;;;26.71;55.49;95430.69;10346798;28;3385;-73
2022/08/25 16:06:33;;;;;;;;;;;27.20;99.90;;;26.78;55.35;95430.72;10350781;28;2596;-73
2022/08/25 16:11:37;;;;;;;;;;;27.40;99.90;;;26.80;54.61;95431.16;10350594;28;3260;-73
2022/08/25 16:16:40;;;;;;;;;;;27.50;99.90;;;26.70;55.56;95427.13;10350320;28;3407;-72
2022/08/25 16:21:50;;;;;;;;;;;27.40;99.90;;;26.59;55.96;95423.53;10345411;28;3311;-72
2022/08/25 16:27:04;;;;;;;;;;;27.30;99.90;;;26.55;55.67;95422.75;10351909;28;3307;-74
2022/08/25 16:32:23;;;;;;;;;;;27.30;99.90;;;26.49;54.49;95429.78;10341647;28;3369;-72
2022/08/25 16:37:26;;;;;;;;;;;27.30;99.90;;;26.29;56.14;95419.00;10348620;28;3455;-73
2022/08/25 16:42:30;;;;;;;;;;;27.00;99.90;;;26.20;57.28;95426.78;10345635;28;3314;-72
2022/08/25 16:47:36;;;;;;;;;;;26.80;99.90;;;25.82;59.10;95426.09;10351325;28;3299;-73
2022/08/25 16:58:01;;;;;;;;;;;26.60;99.90;;;25.37;62.73;95429.16;10343737;28;3283;-73
2022/08/25 17:03:08;;;;;;;;;;;26.30;99.90;;;25.13;64.18;95431.28;10346984;28;2577;-74
2022/08/25 17:08:29;;;;;;;;;;;26.10;99.90;;;25.05;65.14;95440.59;10344079;28;3476;-73
2022/08/25 17:13:39;;;;;;;;;;;25.90;99.90;;;24.80;65.65;95429.25;10341438;28;3352;-73
2022/08/25 17:18:47;;;;;;;;;;;25.80;99.90;;;24.65;66.90;95439.28;10350364;28;3310;-73
2022/08/25 17:23:51;;;;;;;;;;;25.50;99.90;;;24.47;68.05;95427.25;10348902;28;3260;-73
2022/08/25 17:28:54;;;;;;;;;;;25.30;99.90;;;24.39;69.06;95429.13;10344809;28;3266;-72
2022/08/25 17:33:58;;;;;;;;;;;25.20;99.90;;;24.34;69.36;95431.38;10353214;28;3309;-69
2022/08/25 17:39:01;;;;;;;;;;;25.20;99.90;;;24.23;70.15;95437.47;10350374;28;3280;-70
2022/08/25 17:44:22;;;;;;;;;;;25.10;99.90;;;24.07;71.18;95434.09;10355541;28;3276;-71
2022/08/25 17:49:44;;;;;;;;;;;25.00;99.90;;;24.00;72.05;95434.00;10348634;28;3495;-71
2022/08/25 17:54:50;;;;;;;;;;;24.90;99.90;;;23.87;72.76;95427.91;10351761;28;3398;-74
2022/08/25 18:00:14;;;;;;;;;;;24.70;99.90;;;23.73;74.73;95433.16;10353245;28;3459;-71
2022/08/25 18:05:18;;;;;;;;;;;24.60;99.90;;;23.64;75.96;95430.63;10351826;28;3385;-71
2022/08/25 18:10:22;;;;;;;;;;;24.50;99.90;;;23.48;77.29;95438.19;10356964;28;2553;-71
2022/08/25 18:15:25;;;;;;;;;;;24.40;99.90;;;23.40;78.41;95452.91;10346673;28;3438;-72
2022/08/25 18:20:30;;;;;;;;;;;24.30;99.90;;;23.24;79.96;95453.00;10347367;28;3311;-72
2022/08/25 18:25:34;;;;;;;;;;;24.10;99.90;;;23.12;80.81;95442.97;10350322;28;3362;-72
2022/08/25 18:30:37;;;;;;;;;;;24.00;99.90;;;22.99;82.92;95448.97;10356151;28;2598;-73
2022/08/25 18:35:40;;;;;;;;;;;23.90;99.90;;;22.91;84.27;95454.31;10347767;28;3439;-73
2022/08/25 18:40:43;;;;;;;;;;;23.80;99.90;;;22.83;86.01;95455.28;10349560;28;3290;-73
2022/08/25 18:45:47;;;;;;;;;;;23.60;99.90;;;22.74;87.81;95456.66;10350338;28;2740;-71
2022/08/25 18:50:50;;;;;;;;;;;23.60;99.90;;;22.55;89.91;95466.44;10347479;28;3208;-72
2022/08/25 18:55:53;;;;;;;;;;;23.40;99.90;;;22.45;92.01;95466.19;10357349;28;3325;-71
2022/08/25 19:00:56;;;;;;;;;;;23.40;99.90;;;22.37;93.76;95468.75;10352828;28;3302;-70
2022/08/25 19:06:01;;;;;;;;;;;23.20;99.90;;;22.30;94.77;95465.06;10351551;28;3336;-70
2022/08/25 19:11:06;;;;;;;;;;;23.20;99.90;;;22.30;95.66;95463.13;10354108;28;3340;-70
2022/08/25 19:16:09;;;;;;;;;;;23.10;99.90;;;22.25;96.75;95459.84;10355778;28;3292;-72
2022/08/25 19:21:12;;;;;;;;;;;23.00;99.90;;;22.26;96.85;95456.75;10354345;28;3317;-73
2022/08/25 19:26:15;;;;;;;;;;;23.00;99.90;;;22.28;97.05;95459.16;10356949;28;3636;-71
2022/08/25 19:31:19;;;;;;;;;;;23.00;99.90;;;22.19;97.61;95470.28;10357854;28;3482;-75
2022/08/25 19:36:22;;;;;;;;;;;22.90;99.90;;;22.07;98.35;95465.66;10347164;28;3441;-72
2022/08/25 19:41:30;;;;;;;;;;;22.90;99.90;;;22.15;98.19;95465.91;10347137;28;3285;-72
2022/08/25 19:46:32;;;;;;;;;;;22.90;99.90;;;22.09;98.81;95466.16;10344872;28;3287;-71
2022/08/25 19:51:38;;;;;;;;;;;22.90;99.90;;;22.17;99.13;95469.06;10341944;28;3278;-72
2022/08/25 19:56:41;;;;;;;;;;;22.90;99.90;;;22.08;99.92;95467.28;10347421;28;3378;-70
2022/08/25 20:01:55;;;;;;;;;;;22.90;99.90;;;21.92;100.00;95463.75;10352574;28;2679;-70
2022/08/25 20:07:01;;;;;;;;;;;22.80;99.90;;;21.90;100.00;95463.31;10348805;28;3341;-71
2022/08/25 20:12:05;;;;;;;;;;;22.70;99.90;;;21.90;100.00;95460.59;10348242;28;3395;-70
2022/08/25 20:17:08;;;;;;;;;;;22.70;99.90;;;21.92;100.00;95465.69;10343656;28;2624;-71
2022/08/25 20:22:25;;;;;;;;;;;22.70;99.90;;;21.85;100.00;95477.25;10344460;28;3494;-72
2022/08/25 20:27:30;;;;;;;;;;;22.60;99.90;;;21.71;100.00;95480.44;10348987;28;3317;-72
2022/08/25 20:32:35;;;;;;;;;;;22.60;99.90;;;21.72;100.00;95476.53;10354400;28;3318;-71
2022/08/25 20:37:39;;;;;;;;;;;22.50;99.90;;;21.65;100.00;95470.09;10349250;28;3426;-72
2022/08/25 20:42:42;;;;;;;;;;;22.40;99.90;;;21.62;100.00;95471.59;10352391;28;3298;-71
2022/08/25 20:47:46;;;;;;;;;;;22.40;99.90;;;21.50;100.00;95477.94;10344340;28;2588;-71
2022/08/25 20:52:50;;;;;;;;;;;22.30;99.90;;;21.40;100.00;95483.13;10346935;28;2972;-72
2022/08/25 20:57:52;;;;;;;;;;;22.20;99.90;;;21.33;100.00;95480.19;10346422;28;3112;-72
2022/08/25 21:02:57;;;;;;;;;;;22.20;99.90;;;21.33;100.00;95475.53;10350634;28;3017;-71
2022/08/25 21:08:02;;;;;;;;;;;22.10;99.90;;;21.29;100.00;95474.63;10348249;28;3079;-71
2022/08/25 21:13:05;;;;;;;;;;;22.00;99.90;;;21.17;100.00;95471.91;10346442;28;3184;-77
2022/08/25 21:18:08;;;;;;;;;;;22.00;99.90;;;21.09;100.00;95470.13;10351106;28;3033;-76
2022/08/25 21:23:13;;;;;;;;;;;21.90;99.90;;;21.05;100.00;95470.81;10348844;28;3064;-77
2022/08/25 21:28:18;;;;;;;;;;;21.80;99.90;;;20.95;100.00;95471.31;10348060;28;3025;-78
2022/08/25 21:33:22;;;;;;;;;;;21.80;99.90;;;20.87;100.00;95475.00;10348686;28;3113;-77
2022/08/25 21:38:29;;;;;;;;;;;21.70;99.90;;;20.75;100.00;95466.84;10347904;28;3088;-78
2022/08/25 21:43:32;;;;;;;;;;;21.70;99.90;;;20.63;100.00;95464.13;10349254;28;2981;-77
2022/08/25 21:48:35;;;;;;;;;;;21.60;99.90;;;20.63;100.00;95469.59;10345063;28;3025;-77
2022/08/25 21:53:41;;;;;;;;;;;21.50;99.90;;;20.51;100.00;95473.94;10345511;28;3055;-77
2022/08/25 21:58:43;;;;;;;;;;;21.40;99.90;;;20.42;100.00;95475.16;10350294;28;3032;-78
2022/08/25 22:03:51;;;;;;;;;;;21.30;99.90;;;20.43;100.00;95479.50;10350305;28;3037;-77
2022/08/25 22:08:54;;;;;;;;;;;21.30;99.90;;;20.39;100.00;95470.41;10352430;28;3073;-80
2022/08/25 22:13:58;;;;;;;;;;;21.20;99.90;;;20.31;100.00;95469.41;10349352;28;3243;-78
2022/08/25 22:19:08;;;;;;;;;;;21.20;99.90;;;20.15;100.00;95471.22;10361793;28;3123;-78
2022/08/25 22:24:10;;;;;;;;;;;21.10;99.90;;;20.11;100.00;95468.38;10352192;28;3073;-77
2022/08/25 22:29:13;;;;;;;;;;;21.00;99.90;;;20.06;100.00;95467.81;10355093;28;3092;-77
2022/08/25 22:34:27;;;;;;;;;;;21.00;99.90;;;20.05;100.00;95458.03;10353168;28;2986;-75
2022/08/25 22:39:33;;;;;;;;;;;20.90;99.90;;;20.04;100.00;95459.97;10355134;28;2946;-76
2022/08/25 22:44:36;;;;;;;;;;;20.90;99.90;;;20.04;100.00;95459.97;10353884;28;3060;-77
2022/08/25 22:49:39;;;;;;;;;;;21.00;99.90;;;19.94;100.00;95450.31;10355141;28;3076;-76
2022/08/25 22:54:41;;;;;;;;;;;20.90;99.90;;;19.90;100.00;95454.84;10358949;28;3076;-77
2022/08/25 22:59:45;;;;;;;;;;;20.80;99.90;;;19.85;100.00;95451.53;10356283;28;2330;-75
2022/08/25 23:04:48;;;;;;;;;;;20.80;99.90;;;19.87;100.00;95454.75;10354627;28;3033;-76
2022/08/25 23:09:51;;;;;;;;;;;20.70;99.90;;;19.80;100.00;95449.84;10361606;28;3083;-75
2022/08/25 23:14:54;;;;;;;;;;;20.70;99.90;;;19.62;100.00;95453.94;10363062;28;3061;-76
2022/08/25 23:19:57;;;;;;;;;;;20.60;99.90;;;19.61;100.00;95444.16;10354859;28;3096;-76
2022/08/25 23:25:00;;;;;;;;;;;20.50;99.90;;;19.53;100.00;95445.00;10363005;28;3034;-75